sensor_id;sensor_type;location;lat;lon;timestamp;P1;durP1;ratioP1;P2;durP2;ratioP2
7843;SDS011;3967;48.702;9.326;2024-03-29T00:01:05;0.63;;;0.40;;
7843;SDS011;3967;48.702;9.326;2024-03-29T00:03:31;0.87;;;0.70;;
7843;SDS011;3967;48.702;9.326;2024-03-29T00:05:56;0.70;;;0.60;;
7843;SDS011;3967;48.702;9.326;2024-03-29T00:08:22;0.73;;;0.57;;
7843;SDS011;3967;48.702;9.326;2024-03-29T00:10:48;1.17;;;0.87;;
7843;SDS011;3967;48.702;9.326;2024-03-29T00:13:14;2.20;;;0.50;;
7843;SDS011;3967;48.702;9.326;2024-03-29T00:15:39;1.43;;;0.60;;
7843;SDS011;3967;48.702;9.326;2024-03-29T00:18:06;0.77;;;0.40;;
7843;SDS011;3967;48.702;9.326;2024-03-29T00:20:32;1.23;;;0.60;;
7843;SDS011;3967;48.702;9.326;2024-03-29T00:22:57;0.53;;;0.40;;
7843;SDS011;3967;48.702;9.326;2024-03-29T00:25:23;0.80;;;0.40;;
7843;SDS011;3967;48.702;9.326;2024-03-29T00:27:49;3.07;;;0.67;;
7843;SDS011;3967;48.702;9.326;2024-03-29T00:30:15;0.43;;;0.43;;
7843;SDS011;3967;48.702;9.326;2024-03-29T00:32:41;0.50;;;0.50;;
7843;SDS011;3967;48.702;9.326;2024-03-29T00:35:07;0.93;;;0.43;;
7843;SDS011;3967;48.702;9.326;2024-03-29T00:37:33;0.77;;;0.50;;
7843;SDS011;3967;48.702;9.326;2024-03-29T00:39:59;1.00;;;0.40;;
7843;SDS011;3967;48.702;9.326;2024-03-29T00:42:25;0.63;;;0.40;;
7843;SDS011;3967;48.702;9.326;2024-03-29T00:44:51;0.43;;;0.37;;
7843;SDS011;3967;48.702;9.326;2024-03-29T00:47:17;0.97;;;0.47;;
7843;SDS011;3967;48.702;9.326;2024-03-29T00:49:42;0.80;;;0.60;;
7843;SDS011;3967;48.702;9.326;2024-03-29T00:52:08;1.53;;;0.60;;
7843;SDS011;3967;48.702;9.326;2024-03-29T00:54:34;0.77;;;0.50;;
7843;SDS011;3967;48.702;9.326;2024-03-29T00:57:00;1.50;;;0.50;;
7843;SDS011;3967;48.702;9.326;2024-03-29T00:59:25;0.70;;;0.60;;
7843;SDS011;3967;48.702;9.326;2024-03-29T01:01:51;0.70;;;0.50;;
7843;SDS011;3967;48.702;9.326;2024-03-29T01:04:18;0.63;;;0.30;;
7843;SDS011;3967;48.702;9.326;2024-03-29T01:06:43;1.33;;;0.70;;
7843;SDS011;3967;48.702;9.326;2024-03-29T01:09:09;1.00;;;0.50;;
7843;SDS011;3967;48.702;9.326;2024-03-29T01:11:36;0.60;;;0.40;;
7843;SDS011;3967;48.702;9.326;2024-03-29T01:14:03;0.50;;;0.30;;
7843;SDS011;3967;48.702;9.326;2024-03-29T01:16:29;2.40;;;0.50;;
7843;SDS011;3967;48.702;9.326;2024-03-29T01:18:57;3.10;;;0.60;;
7843;SDS011;3967;48.702;9.326;2024-03-29T01:21:23;1.07;;;0.40;;
7843;SDS011;3967;48.702;9.326;2024-03-29T01:23:49;0.70;;;0.40;;
7843;SDS011;3967;48.702;9.326;2024-03-29T01:26:15;1.30;;;0.40;;
7843;SDS011;3967;48.702;9.326;2024-03-29T01:28:43;0.50;;;0.40;;
7843;SDS011;3967;48.702;9.326;2024-03-29T01:31:08;0.80;;;0.40;;
7843;SDS011;3967;48.702;9.326;2024-03-29T01:33:34;0.50;;;0.40;;
7843;SDS011;3967;48.702;9.326;2024-03-29T01:36:06;0.50;;;0.50;;
7843;SDS011;3967;48.702;9.326;2024-03-29T01:38:32;0.87;;;0.40;;
7843;SDS011;3967;48.702;9.326;2024-03-29T01:40:58;0.50;;;0.50;;
7843;SDS011;3967;48.702;9.326;2024-03-29T01:43:24;1.40;;;0.50;;
7843;SDS011;3967;48.702;9.326;2024-03-29T01:45:51;0.30;;;0.30;;
7843;SDS011;3967;48.702;9.326;2024-03-29T01:48:20;0.50;;;0.40;;
7843;SDS011;3967;48.702;9.326;2024-03-29T01:50:50;1.30;;;0.50;;
7843;SDS011;3967;48.702;9.326;2024-03-29T01:53:18;1.53;;;0.33;;
7843;SDS011;3967;48.702;9.326;2024-03-29T01:55:45;0.90;;;0.60;;
7843;SDS011;3967;48.702;9.326;2024-03-29T01:58:11;1.60;;;0.40;;
7843;SDS011;3967;48.702;9.326;2024-03-29T02:01:11;0.57;;;0.40;;
7843;SDS011;3967;48.702;9.326;2024-03-29T02:03:31;0.60;;;0.50;;
7843;SDS011;3967;48.702;9.326;2024-03-29T02:05:57;0.40;;;0.40;;
7843;SDS011;3967;48.702;9.326;2024-03-29T02:08:24;1.50;;;0.50;;
7843;SDS011;3967;48.702;9.326;2024-03-29T02:10:50;0.60;;;0.30;;
7843;SDS011;3967;48.702;9.326;2024-03-29T02:13:17;0.37;;;0.37;;
7843;SDS011;3967;48.702;9.326;2024-03-29T02:15:42;0.57;;;0.40;;
7843;SDS011;3967;48.702;9.326;2024-03-29T02:18:08;0.40;;;0.40;;
7843;SDS011;3967;48.702;9.326;2024-03-29T02:20:34;0.87;;;0.37;;
7843;SDS011;3967;48.702;9.326;2024-03-29T02:23:10;1.00;;;0.50;;
7843;SDS011;3967;48.702;9.326;2024-03-29T02:25:41;0.40;;;0.33;;
7843;SDS011;3967;48.702;9.326;2024-03-29T02:28:07;0.70;;;0.40;;
7843;SDS011;3967;48.702;9.326;2024-03-29T02:30:33;0.70;;;0.40;;
7843;SDS011;3967;48.702;9.326;2024-03-29T02:32:59;1.33;;;0.40;;
7843;SDS011;3967;48.702;9.326;2024-03-29T02:35:25;0.60;;;0.40;;
7843;SDS011;3967;48.702;9.326;2024-03-29T02:37:52;0.40;;;0.40;;
7843;SDS011;3967;48.702;9.326;2024-03-29T02:40:18;0.90;;;0.57;;
7843;SDS011;3967;48.702;9.326;2024-03-29T02:42:45;0.90;;;0.70;;
7843;SDS011;3967;48.702;9.326;2024-03-29T02:45:12;0.20;;;0.20;;
7843;SDS011;3967;48.702;9.326;2024-03-29T02:47:38;0.20;;;0.20;;
7843;SDS011;3967;48.702;9.326;2024-03-29T02:50:05;0.50;;;0.40;;
7843;SDS011;3967;48.702;9.326;2024-03-29T02:52:31;1.23;;;0.30;;
7843;SDS011;3967;48.702;9.326;2024-03-29T02:54:57;1.37;;;0.50;;
7843;SDS011;3967;48.702;9.326;2024-03-29T02:57:23;1.23;;;0.30;;
7843;SDS011;3967;48.702;9.326;2024-03-29T02:59:48;0.93;;;0.83;;
7843;SDS011;3967;48.702;9.326;2024-03-29T03:02:14;1.00;;;0.30;;
7843;SDS011;3967;48.702;9.326;2024-03-29T03:04:40;0.60;;;0.27;;
7843;SDS011;3967;48.702;9.326;2024-03-29T03:07:06;0.77;;;0.50;;
7843;SDS011;3967;48.702;9.326;2024-03-29T03:09:50;1.37;;;0.50;;
7843;SDS011;3967;48.702;9.326;2024-03-29T03:12:34;1.43;;;0.30;;
7843;SDS011;3967;48.702;9.326;2024-03-29T03:15:00;0.27;;;0.27;;
7843;SDS011;3967;48.702;9.326;2024-03-29T03:17:26;0.30;;;0.30;;
7843;SDS011;3967;48.702;9.326;2024-03-29T03:19:53;1.70;;;0.30;;
7843;SDS011;3967;48.702;9.326;2024-03-29T03:22:19;1.57;;;0.60;;
7843;SDS011;3967;48.702;9.326;2024-03-29T03:24:45;1.97;;;0.30;;
7843;SDS011;3967;48.702;9.326;2024-03-29T03:27:11;0.20;;;0.20;;
7843;SDS011;3967;48.702;9.326;2024-03-29T03:29:37;2.07;;;0.20;;
7843;SDS011;3967;48.702;9.326;2024-03-29T03:32:03;0.40;;;0.30;;
7843;SDS011;3967;48.702;9.326;2024-03-29T03:34:29;0.70;;;0.27;;
7843;SDS011;3967;48.702;9.326;2024-03-29T03:36:55;1.43;;;0.30;;
7843;SDS011;3967;48.702;9.326;2024-03-29T03:39:21;0.83;;;0.30;;
7843;SDS011;3967;48.702;9.326;2024-03-29T03:41:47;0.70;;;0.20;;
7843;SDS011;3967;48.702;9.326;2024-03-29T03:44:13;0.57;;;0.40;;
7843;SDS011;3967;48.702;9.326;2024-03-29T03:46:39;0.30;;;0.30;;
7843;SDS011;3967;48.702;9.326;2024-03-29T03:49:04;0.30;;;0.30;;
7843;SDS011;3967;48.702;9.326;2024-03-29T03:51:30;0.87;;;0.40;;
7843;SDS011;3967;48.702;9.326;2024-03-29T03:53:56;0.37;;;0.37;;
7843;SDS011;3967;48.702;9.326;2024-03-29T03:56:22;0.77;;;0.40;;
7843;SDS011;3967;48.702;9.326;2024-03-29T03:58:48;0.33;;;0.30;;
7843;SDS011;3967;48.702;9.326;2024-03-29T04:01:13;0.30;;;0.30;;
7843;SDS011;3967;48.702;9.326;2024-03-29T04:03:39;0.30;;;0.30;;
7843;SDS011;3967;48.702;9.326;2024-03-29T04:06:05;0.40;;;0.20;;
7843;SDS011;3967;48.702;9.326;2024-03-29T04:08:31;0.90;;;0.40;;
7843;SDS011;3967;48.702;9.326;2024-03-29T04:10:57;1.07;;;0.50;;
7843;SDS011;3967;48.702;9.326;2024-03-29T04:13:27;1.33;;;0.60;;
7843;SDS011;3967;48.702;9.326;2024-03-29T04:15:53;0.20;;;0.20;;
7843;SDS011;3967;48.702;9.326;2024-03-29T04:18:26;0.40;;;0.37;;
7843;SDS011;3967;48.702;9.326;2024-03-29T04:20:59;1.70;;;0.40;;
7843;SDS011;3967;48.702;9.326;2024-03-29T04:23:28;0.47;;;0.20;;
7843;SDS011;3967;48.702;9.326;2024-03-29T04:25:58;0.40;;;0.37;;
7843;SDS011;3967;48.702;9.326;2024-03-29T04:28:25;0.20;;;0.20;;
7843;SDS011;3967;48.702;9.326;2024-03-29T04:30:52;0.30;;;0.30;;
7843;SDS011;3967;48.702;9.326;2024-03-29T04:33:22;0.13;;;0.13;;
7843;SDS011;3967;48.702;9.326;2024-03-29T04:35:55;0.30;;;0.27;;
7843;SDS011;3967;48.702;9.326;2024-03-29T04:38:21;0.40;;;0.37;;
7843;SDS011;3967;48.702;9.326;2024-03-29T04:40:48;0.70;;;0.70;;
7843;SDS011;3967;48.702;9.326;2024-03-29T04:43:16;0.83;;;0.83;;
7843;SDS011;3967;48.702;9.326;2024-03-29T04:45:43;0.80;;;0.80;;
7843;SDS011;3967;48.702;9.326;2024-03-29T04:48:09;0.60;;;0.60;;
7843;SDS011;3967;48.702;9.326;2024-03-29T04:50:35;2.70;;;0.83;;
7843;SDS011;3967;48.702;9.326;2024-03-29T04:53:01;0.90;;;0.80;;
7843;SDS011;3967;48.702;9.326;2024-03-29T04:55:27;0.63;;;0.63;;
7843;SDS011;3967;48.702;9.326;2024-03-29T04:57:53;3.03;;;0.80;;
7843;SDS011;3967;48.702;9.326;2024-03-29T05:00:19;1.10;;;0.77;;
7843;SDS011;3967;48.702;9.326;2024-03-29T05:02:45;1.23;;;0.70;;
7843;SDS011;3967;48.702;9.326;2024-03-29T05:05:10;0.90;;;0.70;;
7843;SDS011;3967;48.702;9.326;2024-03-29T05:07:36;0.70;;;0.60;;
7843;SDS011;3967;48.702;9.326;2024-03-29T05:10:02;1.30;;;0.70;;
7843;SDS011;3967;48.702;9.326;2024-03-29T05:12:37;0.80;;;0.53;;
7843;SDS011;3967;48.702;9.326;2024-03-29T05:15:04;0.57;;;0.40;;
7843;SDS011;3967;48.702;9.326;2024-03-29T05:17:30;1.13;;;0.33;;
7843;SDS011;3967;48.702;9.326;2024-03-29T05:19:56;1.43;;;0.40;;
7843;SDS011;3967;48.702;9.326;2024-03-29T05:22:22;0.80;;;0.60;;
7843;SDS011;3967;48.702;9.326;2024-03-29T05:24:48;0.50;;;0.50;;
7843;SDS011;3967;48.702;9.326;2024-03-29T05:27:17;0.47;;;0.33;;
7843;SDS011;3967;48.702;9.326;2024-03-29T05:29:43;0.80;;;0.50;;
7843;SDS011;3967;48.702;9.326;2024-03-29T05:32:09;0.83;;;0.80;;
7843;SDS011;3967;48.702;9.326;2024-03-29T05:34:35;1.10;;;1.00;;
7843;SDS011;3967;48.702;9.326;2024-03-29T05:37:00;1.10;;;1.00;;
7843;SDS011;3967;48.702;9.326;2024-03-29T05:39:26;3.60;;;1.30;;
7843;SDS011;3967;48.702;9.326;2024-03-29T05:41:52;0.93;;;0.87;;
7843;SDS011;3967;48.702;9.326;2024-03-29T05:44:18;0.93;;;0.93;;
7843;SDS011;3967;48.702;9.326;2024-03-29T05:46:44;1.93;;;0.90;;
7843;SDS011;3967;48.702;9.326;2024-03-29T05:49:10;1.90;;;0.90;;
7843;SDS011;3967;48.702;9.326;2024-03-29T05:51:36;1.20;;;0.80;;
7843;SDS011;3967;48.702;9.326;2024-03-29T05:54:02;2.00;;;0.80;;
7843;SDS011;3967;48.702;9.326;2024-03-29T05:56:30;1.23;;;1.13;;
7843;SDS011;3967;48.702;9.326;2024-03-29T05:58:56;0.70;;;0.60;;
7843;SDS011;3967;48.702;9.326;2024-03-29T06:01:22;1.07;;;0.63;;
7843;SDS011;3967;48.702;9.326;2024-03-29T06:03:48;0.50;;;0.50;;
7843;SDS011;3967;48.702;9.326;2024-03-29T06:06:18;0.30;;;0.30;;
7843;SDS011;3967;48.702;9.326;2024-03-29T06:08:47;0.80;;;0.60;;
7843;SDS011;3967;48.702;9.326;2024-03-29T06:11:13;0.30;;;0.30;;
7843;SDS011;3967;48.702;9.326;2024-03-29T06:13:38;0.77;;;0.50;;
7843;SDS011;3967;48.702;9.326;2024-03-29T06:16:28;1.03;;;0.40;;
7843;SDS011;3967;48.702;9.326;2024-03-29T06:19:12;0.97;;;0.40;;
7843;SDS011;3967;48.702;9.326;2024-03-29T06:21:40;0.40;;;0.40;;
7843;SDS011;3967;48.702;9.326;2024-03-29T06:24:08;1.20;;;0.50;;
7843;SDS011;3967;48.702;9.326;2024-03-29T06:26:39;1.00;;;0.30;;
7843;SDS011;3967;48.702;9.326;2024-03-29T06:29:06;0.30;;;0.30;;
7843;SDS011;3967;48.702;9.326;2024-03-29T06:31:35;0.43;;;0.33;;
7843;SDS011;3967;48.702;9.326;2024-03-29T06:34:01;0.47;;;0.20;;
7843;SDS011;3967;48.702;9.326;2024-03-29T06:36:27;1.13;;;0.40;;
7843;SDS011;3967;48.702;9.326;2024-03-29T06:38:55;2.33;;;0.50;;
7843;SDS011;3967;48.702;9.326;2024-03-29T06:41:21;1.13;;;0.40;;
7843;SDS011;3967;48.702;9.326;2024-03-29T06:43:47;0.53;;;0.50;;
7843;SDS011;3967;48.702;9.326;2024-03-29T06:46:13;1.90;;;0.67;;
7843;SDS011;3967;48.702;9.326;2024-03-29T06:48:40;0.50;;;0.50;;
7843;SDS011;3967;48.702;9.326;2024-03-29T06:51:06;0.53;;;0.50;;
7843;SDS011;3967;48.702;9.326;2024-03-29T06:53:32;0.40;;;0.30;;
7843;SDS011;3967;48.702;9.326;2024-03-29T06:55:59;0.63;;;0.40;;
7843;SDS011;3967;48.702;9.326;2024-03-29T06:58:27;0.40;;;0.40;;
7843;SDS011;3967;48.702;9.326;2024-03-29T07:00:52;0.70;;;0.47;;
7843;SDS011;3967;48.702;9.326;2024-03-29T07:03:18;0.40;;;0.40;;
7843;SDS011;3967;48.702;9.326;2024-03-29T07:05:47;0.57;;;0.57;;
7843;SDS011;3967;48.702;9.326;2024-03-29T07:08:13;0.80;;;0.67;;
7843;SDS011;3967;48.702;9.326;2024-03-29T07:10:39;1.27;;;0.70;;
7843;SDS011;3967;48.702;9.326;2024-03-29T07:13:08;0.87;;;0.50;;
7843;SDS011;3967;48.702;9.326;2024-03-29T07:15:35;0.90;;;0.33;;
7843;SDS011;3967;48.702;9.326;2024-03-29T07:18:01;0.40;;;0.40;;
7843;SDS011;3967;48.702;9.326;2024-03-29T07:20:30;1.50;;;0.40;;
7843;SDS011;3967;48.702;9.326;2024-03-29T07:22:56;0.60;;;0.60;;
7843;SDS011;3967;48.702;9.326;2024-03-29T07:25:22;0.43;;;0.43;;
7843;SDS011;3967;48.702;9.326;2024-03-29T07:27:47;1.50;;;0.50;;
7843;SDS011;3967;48.702;9.326;2024-03-29T07:30:15;0.50;;;0.30;;
7843;SDS011;3967;48.702;9.326;2024-03-29T07:32:41;0.90;;;0.63;;
7843;SDS011;3967;48.702;9.326;2024-03-29T07:35:07;2.20;;;0.70;;
7843;SDS011;3967;48.702;9.326;2024-03-29T07:37:33;1.53;;;0.87;;
7843;SDS011;3967;48.702;9.326;2024-03-29T07:39:59;1.33;;;0.80;;
7843;SDS011;3967;48.702;9.326;2024-03-29T07:42:24;1.60;;;0.80;;
7843;SDS011;3967;48.702;9.326;2024-03-29T07:44:50;0.70;;;0.47;;
7843;SDS011;3967;48.702;9.326;2024-03-29T07:47:16;0.80;;;0.60;;
7843;SDS011;3967;48.702;9.326;2024-03-29T07:49:42;1.50;;;0.93;;
7843;SDS011;3967;48.702;9.326;2024-03-29T07:52:08;1.93;;;1.20;;
7843;SDS011;3967;48.702;9.326;2024-03-29T07:54:34;1.57;;;1.47;;
7843;SDS011;3967;48.702;9.326;2024-03-29T07:57:01;2.20;;;1.20;;
7843;SDS011;3967;48.702;9.326;2024-03-29T07:59:27;1.90;;;1.30;;
7843;SDS011;3967;48.702;9.326;2024-03-29T08:01:53;1.97;;;1.00;;
7843;SDS011;3967;48.702;9.326;2024-03-29T08:04:21;1.33;;;1.13;;
7843;SDS011;3967;48.702;9.326;2024-03-29T08:06:46;1.50;;;1.40;;
7843;SDS011;3967;48.702;9.326;2024-03-29T08:09:12;1.63;;;1.40;;
7843;SDS011;3967;48.702;9.326;2024-03-29T08:11:39;1.60;;;1.30;;
7843;SDS011;3967;48.702;9.326;2024-03-29T08:14:05;1.40;;;1.30;;
7843;SDS011;3967;48.702;9.326;2024-03-29T08:16:32;3.43;;;1.10;;
7843;SDS011;3967;48.702;9.326;2024-03-29T08:18:58;1.73;;;1.27;;
7843;SDS011;3967;48.702;9.326;2024-03-29T08:21:24;1.40;;;1.23;;
7843;SDS011;3967;48.702;9.326;2024-03-29T08:23:52;1.70;;;1.27;;
7843;SDS011;3967;48.702;9.326;2024-03-29T08:26:23;1.70;;;1.20;;
7843;SDS011;3967;48.702;9.326;2024-03-29T08:28:49;0.90;;;0.80;;
7843;SDS011;3967;48.702;9.326;2024-03-29T08:31:15;1.03;;;0.83;;
7843;SDS011;3967;48.702;9.326;2024-03-29T08:33:41;0.80;;;0.60;;
7843;SDS011;3967;48.702;9.326;2024-03-29T08:36:08;0.83;;;0.50;;
7843;SDS011;3967;48.702;9.326;2024-03-29T08:38:36;0.90;;;0.80;;
7843;SDS011;3967;48.702;9.326;2024-03-29T08:41:08;0.57;;;0.57;;
7843;SDS011;3967;48.702;9.326;2024-03-29T08:43:34;0.87;;;0.70;;
7843;SDS011;3967;48.702;9.326;2024-03-29T08:46:00;1.27;;;1.00;;
7843;SDS011;3967;48.702;9.326;2024-03-29T08:48:29;1.73;;;0.90;;
7843;SDS011;3967;48.702;9.326;2024-03-29T08:50:55;0.93;;;0.80;;
7843;SDS011;3967;48.702;9.326;2024-03-29T08:53:21;0.80;;;0.73;;
7843;SDS011;3967;48.702;9.326;2024-03-29T08:55:47;1.63;;;0.70;;
7843;SDS011;3967;48.702;9.326;2024-03-29T08:58:16;1.13;;;0.83;;
7843;SDS011;3967;48.702;9.326;2024-03-29T09:00:43;1.50;;;0.83;;
7843;SDS011;3967;48.702;9.326;2024-03-29T09:03:08;0.83;;;0.80;;
7843;SDS011;3967;48.702;9.326;2024-03-29T09:05:34;0.90;;;0.90;;
7843;SDS011;3967;48.702;9.326;2024-03-29T09:08:00;1.00;;;0.90;;
7843;SDS011;3967;48.702;9.326;2024-03-29T09:10:26;0.87;;;0.87;;
7843;SDS011;3967;48.702;9.326;2024-03-29T09:12:52;1.00;;;0.70;;
7843;SDS011;3967;48.702;9.326;2024-03-29T09:15:18;0.90;;;0.87;;
7843;SDS011;3967;48.702;9.326;2024-03-29T09:17:44;1.23;;;1.13;;
7843;SDS011;3967;48.702;9.326;2024-03-29T09:20:13;2.30;;;0.90;;
7843;SDS011;3967;48.702;9.326;2024-03-29T09:22:39;0.80;;;0.80;;
7843;SDS011;3967;48.702;9.326;2024-03-29T09:25:05;0.80;;;0.80;;
7843;SDS011;3967;48.702;9.326;2024-03-29T09:27:34;1.97;;;0.70;;
7843;SDS011;3967;48.702;9.326;2024-03-29T09:30:02;1.10;;;1.00;;
7843;SDS011;3967;48.702;9.326;2024-03-29T09:32:30;1.20;;;0.93;;
7843;SDS011;3967;48.702;9.326;2024-03-29T09:34:57;0.87;;;0.77;;
7843;SDS011;3967;48.702;9.326;2024-03-29T09:37:22;1.10;;;0.90;;
7843;SDS011;3967;48.702;9.326;2024-03-29T09:39:49;1.00;;;0.80;;
7843;SDS011;3967;48.702;9.326;2024-03-29T09:42:18;1.40;;;0.97;;
7843;SDS011;3967;48.702;9.326;2024-03-29T09:44:47;1.60;;;0.97;;
7843;SDS011;3967;48.702;9.326;2024-03-29T09:47:15;0.97;;;0.80;;
7843;SDS011;3967;48.702;9.326;2024-03-29T09:49:44;1.90;;;1.40;;
7843;SDS011;3967;48.702;9.326;2024-03-29T09:52:10;1.50;;;1.40;;
7843;SDS011;3967;48.702;9.326;2024-03-29T09:54:37;16.23;;;6.43;;
7843;SDS011;3967;48.702;9.326;2024-03-29T09:57:03;9.87;;;2.97;;
7843;SDS011;3967;48.702;9.326;2024-03-29T09:59:30;14.00;;;3.53;;
7843;SDS011;3967;48.702;9.326;2024-03-29T10:01:56;42.23;;;14.53;;
7843;SDS011;3967;48.702;9.326;2024-03-29T10:04:24;33.77;;;8.93;;
7843;SDS011;3967;48.702;9.326;2024-03-29T10:06:52;4.00;;;1.77;;
7843;SDS011;3967;48.702;9.326;2024-03-29T10:09:19;2.77;;;1.87;;
7843;SDS011;3967;48.702;9.326;2024-03-29T10:11:45;2.33;;;1.33;;
7843;SDS011;3967;48.702;9.326;2024-03-29T10:14:13;1.77;;;1.13;;
7843;SDS011;3967;48.702;9.326;2024-03-29T10:16:39;1.40;;;0.70;;
7843;SDS011;3967;48.702;9.326;2024-03-29T10:19:04;1.00;;;0.40;;
7843;SDS011;3967;48.702;9.326;2024-03-29T10:21:33;0.80;;;0.60;;
7843;SDS011;3967;48.702;9.326;2024-03-29T10:24:14;0.87;;;0.40;;
7843;SDS011;3967;48.702;9.326;2024-03-29T10:26:45;0.80;;;0.67;;
7843;SDS011;3967;48.702;9.326;2024-03-29T10:29:11;1.30;;;0.60;;
7843;SDS011;3967;48.702;9.326;2024-03-29T10:31:37;0.30;;;0.30;;
7843;SDS011;3967;48.702;9.326;2024-03-29T10:34:03;0.60;;;0.43;;
7843;SDS011;3967;48.702;9.326;2024-03-29T10:36:31;0.70;;;0.63;;
7843;SDS011;3967;48.702;9.326;2024-03-29T10:39:09;1.07;;;0.70;;
7843;SDS011;3967;48.702;9.326;2024-03-29T10:41:41;0.80;;;0.57;;
7843;SDS011;3967;48.702;9.326;2024-03-29T10:44:13;1.50;;;0.50;;
7843;SDS011;3967;48.702;9.326;2024-03-29T10:46:40;0.77;;;0.60;;
7843;SDS011;3967;48.702;9.326;2024-03-29T10:49:08;2.87;;;0.93;;
7843;SDS011;3967;48.702;9.326;2024-03-29T10:51:38;1.50;;;0.70;;
7843;SDS011;3967;48.702;9.326;2024-03-29T10:54:05;0.80;;;0.80;;
7843;SDS011;3967;48.702;9.326;2024-03-29T10:56:35;0.97;;;0.80;;
7843;SDS011;3967;48.702;9.326;2024-03-29T10:59:05;1.97;;;0.80;;
7843;SDS011;3967;48.702;9.326;2024-03-29T11:01:38;1.63;;;1.23;;
7843;SDS011;3967;48.702;9.326;2024-03-29T11:04:12;3.20;;;1.20;;
7843;SDS011;3967;48.702;9.326;2024-03-29T11:06:42;1.63;;;0.73;;
7843;SDS011;3967;48.702;9.326;2024-03-29T11:09:12;1.40;;;0.90;;
7843;SDS011;3967;48.702;9.326;2024-03-29T11:11:44;1.33;;;1.23;;
7843;SDS011;3967;48.702;9.326;2024-03-29T11:14:20;5.87;;;2.37;;
7843;SDS011;3967;48.702;9.326;2024-03-29T11:16:52;10.33;;;6.73;;
7843;SDS011;3967;48.702;9.326;2024-03-29T11:19:22;1.70;;;1.00;;
7843;SDS011;3967;48.702;9.326;2024-03-29T11:21:48;2.47;;;0.70;;
7843;SDS011;3967;48.702;9.326;2024-03-29T11:24:16;1.20;;;0.90;;
7843;SDS011;3967;48.702;9.326;2024-03-29T11:26:45;1.17;;;0.90;;
7843;SDS011;3967;48.702;9.326;2024-03-29T11:29:18;2.10;;;0.87;;
7843;SDS011;3967;48.702;9.326;2024-03-29T11:31:47;0.57;;;0.40;;
7843;SDS011;3967;48.702;9.326;2024-03-29T11:34:21;1.23;;;0.50;;
7843;SDS011;3967;48.702;9.326;2024-03-29T11:36:47;0.83;;;0.40;;
7843;SDS011;3967;48.702;9.326;2024-03-29T11:39:20;0.33;;;0.30;;
7843;SDS011;3967;48.702;9.326;2024-03-29T11:41:47;0.60;;;0.40;;
7843;SDS011;3967;48.702;9.326;2024-03-29T11:44:13;0.47;;;0.47;;
7843;SDS011;3967;48.702;9.326;2024-03-29T11:46:39;0.30;;;0.30;;
7843;SDS011;3967;48.702;9.326;2024-03-29T11:49:06;0.97;;;0.40;;
7843;SDS011;3967;48.702;9.326;2024-03-29T11:51:32;1.13;;;0.63;;
7843;SDS011;3967;48.702;9.326;2024-03-29T11:53:59;0.60;;;0.50;;
7843;SDS011;3967;48.702;9.326;2024-03-29T11:56:26;1.43;;;0.50;;
7843;SDS011;3967;48.702;9.326;2024-03-29T11:58:51;0.57;;;0.40;;
7843;SDS011;3967;48.702;9.326;2024-03-29T12:01:19;0.93;;;0.50;;
7843;SDS011;3967;48.702;9.326;2024-03-29T12:03:45;0.57;;;0.40;;
7843;SDS011;3967;48.702;9.326;2024-03-29T12:06:14;0.90;;;0.60;;
7843;SDS011;3967;48.702;9.326;2024-03-29T12:08:42;0.30;;;0.30;;
7843;SDS011;3967;48.702;9.326;2024-03-29T12:11:08;0.40;;;0.40;;
7843;SDS011;3967;48.702;9.326;2024-03-29T12:13:36;1.20;;;0.30;;
7843;SDS011;3967;48.702;9.326;2024-03-29T12:16:02;1.33;;;0.40;;
7843;SDS011;3967;48.702;9.326;2024-03-29T12:18:28;0.53;;;0.50;;
7843;SDS011;3967;48.702;9.326;2024-03-29T12:20:57;0.93;;;0.50;;
7843;SDS011;3967;48.702;9.326;2024-03-29T12:23:23;0.60;;;0.40;;
7843;SDS011;3967;48.702;9.326;2024-03-29T12:25:49;0.53;;;0.33;;
7843;SDS011;3967;48.702;9.326;2024-03-29T12:28:17;0.40;;;0.40;;
7843;SDS011;3967;48.702;9.326;2024-03-29T12:30:43;1.50;;;0.40;;
7843;SDS011;3967;48.702;9.326;2024-03-29T12:33:14;0.30;;;0.30;;
7843;SDS011;3967;48.702;9.326;2024-03-29T12:35:42;0.33;;;0.33;;
7843;SDS011;3967;48.702;9.326;2024-03-29T12:38:13;0.30;;;0.30;;
7843;SDS011;3967;48.702;9.326;2024-03-29T12:40:40;0.53;;;0.40;;
7843;SDS011;3967;48.702;9.326;2024-03-29T12:43:08;1.47;;;0.60;;
7843;SDS011;3967;48.702;9.326;2024-03-29T12:45:36;0.80;;;0.57;;
7843;SDS011;3967;48.702;9.326;2024-03-29T12:48:09;0.70;;;0.60;;
7843;SDS011;3967;48.702;9.326;2024-03-29T12:50:36;0.63;;;0.60;;
7843;SDS011;3967;48.702;9.326;2024-03-29T12:53:05;0.97;;;0.70;;
7843;SDS011;3967;48.702;9.326;2024-03-29T12:55:32;0.60;;;0.60;;
7843;SDS011;3967;48.702;9.326;2024-03-29T12:58:01;0.53;;;0.53;;
7843;SDS011;3967;48.702;9.326;2024-03-29T13:00:33;0.80;;;0.50;;
7843;SDS011;3967;48.702;9.326;2024-03-29T13:02:59;0.43;;;0.43;;
7843;SDS011;3967;48.702;9.326;2024-03-29T13:05:26;1.63;;;0.70;;
7843;SDS011;3967;48.702;9.326;2024-03-29T13:07:53;0.80;;;0.67;;
7843;SDS011;3967;48.702;9.326;2024-03-29T13:10:19;0.40;;;0.40;;
7843;SDS011;3967;48.702;9.326;2024-03-29T13:12:49;0.60;;;0.40;;
7843;SDS011;3967;48.702;9.326;2024-03-29T13:15:27;0.67;;;0.67;;
7843;SDS011;3967;48.702;9.326;2024-03-29T13:17:54;0.80;;;0.60;;
7843;SDS011;3967;48.702;9.326;2024-03-29T13:20:21;1.50;;;0.50;;
7843;SDS011;3967;48.702;9.326;2024-03-29T13:22:48;1.30;;;0.80;;
7843;SDS011;3967;48.702;9.326;2024-03-29T13:25:15;0.50;;;0.40;;
7843;SDS011;3967;48.702;9.326;2024-03-29T13:27:42;0.63;;;0.50;;
7843;SDS011;3967;48.702;9.326;2024-03-29T13:30:10;0.70;;;0.50;;
7843;SDS011;3967;48.702;9.326;2024-03-29T13:32:40;0.50;;;0.50;;
7843;SDS011;3967;48.702;9.326;2024-03-29T13:35:07;0.83;;;0.50;;
7843;SDS011;3967;48.702;9.326;2024-03-29T13:40:02;1.93;;;0.67;;
7843;SDS011;3967;48.702;9.326;2024-03-29T13:42:29;0.83;;;0.40;;
7843;SDS011;3967;48.702;9.326;2024-03-29T13:44:56;2.00;;;0.67;;
7843;SDS011;3967;48.702;9.326;2024-03-29T13:47:22;0.70;;;0.60;;
7843;SDS011;3967;48.702;9.326;2024-03-29T13:49:48;2.20;;;0.60;;
7843;SDS011;3967;48.702;9.326;2024-03-29T13:52:18;1.00;;;0.50;;
7843;SDS011;3967;48.702;9.326;2024-03-29T13:54:45;1.30;;;0.60;;
7843;SDS011;3967;48.702;9.326;2024-03-29T13:57:12;2.10;;;0.70;;
7843;SDS011;3967;48.702;9.326;2024-03-29T13:59:39;0.50;;;0.50;;
7843;SDS011;3967;48.702;9.326;2024-03-29T14:02:04;1.03;;;0.60;;
7843;SDS011;3967;48.702;9.326;2024-03-29T14:04:30;1.53;;;0.60;;
7843;SDS011;3967;48.702;9.326;2024-03-29T14:06:56;1.73;;;0.60;;
7843;SDS011;3967;48.702;9.326;2024-03-29T14:09:22;1.50;;;0.70;;
7843;SDS011;3967;48.702;9.326;2024-03-29T14:11:48;1.00;;;0.73;;
7843;SDS011;3967;48.702;9.326;2024-03-29T14:14:13;0.60;;;0.60;;
7843;SDS011;3967;48.702;9.326;2024-03-29T14:16:39;1.53;;;0.90;;
7843;SDS011;3967;48.702;9.326;2024-03-29T14:19:05;0.70;;;0.70;;
7843;SDS011;3967;48.702;9.326;2024-03-29T14:21:31;1.73;;;0.80;;
7843;SDS011;3967;48.702;9.326;2024-03-29T14:23:57;2.27;;;0.70;;
7843;SDS011;3967;48.702;9.326;2024-03-29T14:26:23;1.67;;;0.80;;
7843;SDS011;3967;48.702;9.326;2024-03-29T14:28:49;0.70;;;0.63;;
7843;SDS011;3967;48.702;9.326;2024-03-29T14:31:15;0.63;;;0.63;;
7843;SDS011;3967;48.702;9.326;2024-03-29T14:33:41;1.20;;;0.70;;
7843;SDS011;3967;48.702;9.326;2024-03-29T14:36:07;0.70;;;0.60;;
7843;SDS011;3967;48.702;9.326;2024-03-29T14:38:33;0.80;;;0.50;;
7843;SDS011;3967;48.702;9.326;2024-03-29T14:40:58;0.60;;;0.50;;
7843;SDS011;3967;48.702;9.326;2024-03-29T14:43:24;0.40;;;0.40;;
7843;SDS011;3967;48.702;9.326;2024-03-29T14:45:50;0.50;;;0.50;;
7843;SDS011;3967;48.702;9.326;2024-03-29T14:48:17;0.93;;;0.50;;
7843;SDS011;3967;48.702;9.326;2024-03-29T14:50:43;0.73;;;0.70;;
7843;SDS011;3967;48.702;9.326;2024-03-29T14:53:09;1.33;;;0.70;;
7843;SDS011;3967;48.702;9.326;2024-03-29T14:55:35;0.73;;;0.73;;
7843;SDS011;3967;48.702;9.326;2024-03-29T14:58:05;1.70;;;0.70;;
7843;SDS011;3967;48.702;9.326;2024-03-29T15:00:31;0.67;;;0.50;;
7843;SDS011;3967;48.702;9.326;2024-03-29T15:02:57;3.73;;;0.60;;
7843;SDS011;3967;48.702;9.326;2024-03-29T15:05:23;0.60;;;0.60;;
7843;SDS011;3967;48.702;9.326;2024-03-29T15:07:51;0.53;;;0.50;;
7843;SDS011;3967;48.702;9.326;2024-03-29T15:10:17;0.90;;;0.90;;
7843;SDS011;3967;48.702;9.326;2024-03-29T15:12:44;0.43;;;0.43;;
7843;SDS011;3967;48.702;9.326;2024-03-29T15:15:13;0.63;;;0.50;;
7843;SDS011;3967;48.702;9.326;2024-03-29T15:17:39;1.70;;;0.77;;